sensor_id;sensor_type;location;lat;lon;timestamp;P1;durP1;ratioP1;P2;durP2;ratioP2
55706;SDS011;41608;45.384;20.394;2022-08-21T00:00:37;25.10;;;16.77;;
55706;SDS011;41608;45.384;20.394;2022-08-21T00:03:07;21.48;;;16.75;;
55706;SDS011;41608;45.384;20.394;2022-08-21T00:05:36;28.95;;;17.67;;
55706;SDS011;41608;45.384;20.394;2022-08-21T00:08:02;33.25;;;17.17;;
55706;SDS011;41608;45.384;20.394;2022-08-21T00:10:29;26.13;;;17.60;;
55706;SDS011;41608;45.384;20.394;2022-08-21T00:12:55;25.48;;;18.58;;
55706;SDS011;41608;45.384;20.394;2022-08-21T00:15:23;24.30;;;14.77;;
55706;SDS011;41608;45.384;20.394;2022-08-21T00:17:50;26.58;;;15.85;;
55706;SDS011;41608;45.384;20.394;2022-08-21T00:20:17;26.83;;;15.30;;
55706;SDS011;41608;45.384;20.394;2022-08-21T00:22:44;24.13;;;15.38;;
55706;SDS011;41608;45.384;20.394;2022-08-21T00:25:10;24.73;;;16.17;;
55706;SDS011;41608;45.384;20.394;2022-08-21T00:27:37;30.92;;;14.55;;
55706;SDS011;41608;45.384;20.394;2022-08-21T00:30:05;22.92;;;15.07;;
55706;SDS011;41608;45.384;20.394;2022-08-21T00:32:35;25.38;;;15.77;;
55706;SDS011;41608;45.384;20.394;2022-08-21T00:35:02;24.08;;;15.43;;
55706;SDS011;41608;45.384;20.394;2022-08-21T00:37:29;24.85;;;15.75;;
55706;SDS011;41608;45.384;20.394;2022-08-21T00:39:55;24.02;;;14.65;;
55706;SDS011;41608;45.384;20.394;2022-08-21T00:42:21;24.30;;;15.70;;
55706;SDS011;41608;45.384;20.394;2022-08-21T00:44:48;22.60;;;15.15;;
55706;SDS011;41608;45.384;20.394;2022-08-21T00:47:15;25.88;;;15.90;;
55706;SDS011;41608;45.384;20.394;2022-08-21T00:49:42;25.95;;;16.95;;
55706;SDS011;41608;45.384;20.394;2022-08-21T00:52:09;25.23;;;16.75;;
55706;SDS011;41608;45.384;20.394;2022-08-21T00:54:36;26.50;;;17.48;;
55706;SDS011;41608;45.384;20.394;2022-08-21T00:57:05;28.63;;;18.05;;
55706;SDS011;41608;45.384;20.394;2022-08-21T00:59:34;24.65;;;16.35;;
55706;SDS011;41608;45.384;20.394;2022-08-21T01:02:00;28.52;;;19.15;;
55706;SDS011;41608;45.384;20.394;2022-08-21T01:04:26;25.70;;;18.67;;
55706;SDS011;41608;45.384;20.394;2022-08-21T01:06:53;27.23;;;18.98;;
55706;SDS011;41608;45.384;20.394;2022-08-21T01:09:19;25.85;;;17.02;;
55706;SDS011;41608;45.384;20.394;2022-08-21T01:11:46;33.92;;;19.00;;
55706;SDS011;41608;45.384;20.394;2022-08-21T01:14:12;27.25;;;18.05;;
55706;SDS011;41608;45.384;20.394;2022-08-21T01:16:44;28.52;;;19.67;;
55706;SDS011;41608;45.384;20.394;2022-08-21T01:19:10;30.10;;;20.85;;
55706;SDS011;41608;45.384;20.394;2022-08-21T01:21:37;25.33;;;19.17;;
55706;SDS011;41608;45.384;20.394;2022-08-21T01:24:03;26.83;;;20.40;;
55706;SDS011;41608;45.384;20.394;2022-08-21T01:26:31;29.17;;;20.85;;
55706;SDS011;41608;45.384;20.394;2022-08-21T01:29:12;30.05;;;19.58;;
55706;SDS011;41608;45.384;20.394;2022-08-21T01:31:40;28.58;;;21.05;;
55706;SDS011;41608;45.384;20.394;2022-08-21T01:34:06;29.58;;;20.83;;
55706;SDS011;41608;45.384;20.394;2022-08-21T01:36:32;29.30;;;21.00;;
55706;SDS011;41608;45.384;20.394;2022-08-21T01:38:58;35.33;;;25.05;;
55706;SDS011;41608;45.384;20.394;2022-08-21T01:41:25;36.90;;;24.77;;
55706;SDS011;41608;45.384;20.394;2022-08-21T01:43:51;42.05;;;27.15;;
55706;SDS011;41608;45.384;20.394;2022-08-21T01:46:17;34.28;;;26.02;;
55706;SDS011;41608;45.384;20.394;2022-08-21T01:48:43;36.05;;;26.50;;
55706;SDS011;41608;45.384;20.394;2022-08-21T01:51:11;43.58;;;27.85;;
55706;SDS011;41608;45.384;20.394;2022-08-21T01:53:37;36.20;;;26.35;;
55706;SDS011;41608;45.384;20.394;2022-08-21T01:56:04;36.38;;;26.38;;
55706;SDS011;41608;45.384;20.394;2022-08-21T01:58:31;42.78;;;27.33;;
55706;SDS011;41608;45.384;20.394;2022-08-21T02:00:58;40.20;;;29.42;;
55706;SDS011;41608;45.384;20.394;2022-08-21T02:03:26;41.72;;;27.63;;
55706;SDS011;41608;45.384;20.394;2022-08-21T02:05:52;44.00;;;28.77;;
55706;SDS011;41608;45.384;20.394;2022-08-21T02:08:18;42.45;;;28.52;;
55706;SDS011;41608;45.384;20.394;2022-08-21T02:10:48;37.05;;;26.92;;
55706;SDS011;41608;45.384;20.394;2022-08-21T02:13:14;40.97;;;27.13;;
55706;SDS011;41608;45.384;20.394;2022-08-21T02:15:40;41.92;;;27.88;;
55706;SDS011;41608;45.384;20.394;2022-08-21T02:18:07;42.28;;;27.02;;
55706;SDS011;41608;45.384;20.394;2022-08-21T02:20:34;44.85;;;28.77;;
55706;SDS011;41608;45.384;20.394;2022-08-21T02:23:00;37.00;;;25.15;;
55706;SDS011;41608;45.384;20.394;2022-08-21T02:25:27;40.63;;;27.77;;
55706;SDS011;41608;45.384;20.394;2022-08-21T02:27:53;39.47;;;29.10;;
55706;SDS011;41608;45.384;20.394;2022-08-21T02:30:22;38.30;;;27.52;;
55706;SDS011;41608;45.384;20.394;2022-08-21T02:32:48;41.88;;;27.33;;
55706;SDS011;41608;45.384;20.394;2022-08-21T02:35:15;38.50;;;25.15;;
55706;SDS011;41608;45.384;20.394;2022-08-21T02:40:10;35.45;;;24.23;;
55706;SDS011;41608;45.384;20.394;2022-08-21T02:42:37;32.72;;;23.38;;
55706;SDS011;41608;45.384;20.394;2022-08-21T02:45:05;34.63;;;24.52;;
55706;SDS011;41608;45.384;20.394;2022-08-21T02:47:31;38.38;;;24.90;;
55706;SDS011;41608;45.384;20.394;2022-08-21T02:49:57;34.13;;;23.63;;
55706;SDS011;41608;45.384;20.394;2022-08-21T02:52:23;36.95;;;25.20;;
55706;SDS011;41608;45.384;20.394;2022-08-21T02:54:49;36.75;;;24.40;;
55706;SDS011;41608;45.384;20.394;2022-08-21T02:57:17;37.15;;;23.70;;
55706;SDS011;41608;45.384;20.394;2022-08-21T02:59:43;35.47;;;25.27;;
55706;SDS011;41608;45.384;20.394;2022-08-21T03:02:10;37.28;;;26.88;;
55706;SDS011;41608;45.384;20.394;2022-08-21T03:04:36;41.38;;;26.40;;
55706;SDS011;41608;45.384;20.394;2022-08-21T03:07:02;34.72;;;26.52;;
55706;SDS011;41608;45.384;20.394;2022-08-21T03:09:28;40.33;;;27.77;;
55706;SDS011;41608;45.384;20.394;2022-08-21T03:11:57;36.00;;;24.02;;
55706;SDS011;41608;45.384;20.394;2022-08-21T03:14:23;36.63;;;24.70;;
55706;SDS011;41608;45.384;20.394;2022-08-21T03:16:49;31.50;;;23.73;;
55706;SDS011;41608;45.384;20.394;2022-08-21T03:19:15;43.20;;;26.02;;
55706;SDS011;41608;45.384;20.394;2022-08-21T03:21:41;36.67;;;24.42;;
55706;SDS011;41608;45.384;20.394;2022-08-21T03:24:07;29.98;;;23.45;;
55706;SDS011;41608;45.384;20.394;2022-08-21T03:26:34;35.80;;;24.67;;
55706;SDS011;41608;45.384;20.394;2022-08-21T03:29:00;33.20;;;22.50;;
55706;SDS011;41608;45.384;20.394;2022-08-21T03:31:26;31.27;;;22.73;;
55706;SDS011;41608;45.384;20.394;2022-08-21T03:33:56;31.25;;;22.42;;
55706;SDS011;41608;45.384;20.394;2022-08-21T03:36:22;31.33;;;22.95;;
55706;SDS011;41608;45.384;20.394;2022-08-21T03:38:50;36.13;;;21.95;;
55706;SDS011;41608;45.384;20.394;2022-08-21T03:41:17;38.83;;;22.85;;
55706;SDS011;41608;45.384;20.394;2022-08-21T03:43:43;31.75;;;22.35;;
55706;SDS011;41608;45.384;20.394;2022-08-21T03:46:09;33.78;;;23.63;;
55706;SDS011;41608;45.384;20.394;2022-08-21T03:48:36;29.35;;;20.90;;
55706;SDS011;41608;45.384;20.394;2022-08-21T03:51:02;30.98;;;21.33;;
55706;SDS011;41608;45.384;20.394;2022-08-21T03:53:29;28.05;;;20.98;;
55706;SDS011;41608;45.384;20.394;2022-08-21T03:55:55;27.25;;;19.08;;
55706;SDS011;41608;45.384;20.394;2022-08-21T03:58:23;36.92;;;22.45;;
55706;SDS011;41608;45.384;20.394;2022-08-21T04:00:51;31.55;;;20.10;;
55706;SDS011;41608;45.384;20.394;2022-08-21T04:03:18;30.85;;;20.92;;
55706;SDS011;41608;45.384;20.394;2022-08-21T04:05:44;32.72;;;21.30;;
55706;SDS011;41608;45.384;20.394;2022-08-21T04:08:11;31.25;;;20.92;;
55706;SDS011;41608;45.384;20.394;2022-08-21T04:10:38;34.47;;;21.88;;
55706;SDS011;41608;45.384;20.394;2022-08-21T04:13:05;32.28;;;20.88;;
55706;SDS011;41608;45.384;20.394;2022-08-21T04:15:31;29.60;;;22.38;;
55706;SDS011;41608;45.384;20.394;2022-08-21T04:17:58;30.20;;;22.15;;
55706;SDS011;41608;45.384;20.394;2022-08-21T04:20:24;30.15;;;21.80;;
55706;SDS011;41608;45.384;20.394;2022-08-21T04:22:50;30.50;;;21.67;;
55706;SDS011;41608;45.384;20.394;2022-08-21T04:25:18;39.97;;;25.33;;
55706;SDS011;41608;45.384;20.394;2022-08-21T04:27:45;41.40;;;26.45;;
55706;SDS011;41608;45.384;20.394;2022-08-21T04:30:11;36.22;;;24.73;;
55706;SDS011;41608;45.384;20.394;2022-08-21T04:32:38;39.22;;;27.23;;
55706;SDS011;41608;45.384;20.394;2022-08-21T04:35:05;37.33;;;24.52;;
55706;SDS011;41608;45.384;20.394;2022-08-21T04:37:32;37.63;;;27.50;;
55706;SDS011;41608;45.384;20.394;2022-08-21T04:39:58;37.40;;;28.00;;
55706;SDS011;41608;45.384;20.394;2022-08-21T04:42:25;42.83;;;28.35;;
55706;SDS011;41608;45.384;20.394;2022-08-21T04:44:51;40.22;;;27.02;;
55706;SDS011;41608;45.384;20.394;2022-08-21T04:47:17;39.67;;;28.77;;
55706;SDS011;41608;45.384;20.394;2022-08-21T04:49:45;44.40;;;32.15;;
55706;SDS011;41608;45.384;20.394;2022-08-21T04:52:12;41.83;;;30.50;;
55706;SDS011;41608;45.384;20.394;2022-08-21T04:54:39;40.33;;;29.20;;
55706;SDS011;41608;45.384;20.394;2022-08-21T04:57:06;43.85;;;29.20;;
55706;SDS011;41608;45.384;20.394;2022-08-21T04:59:37;44.45;;;29.08;;
55706;SDS011;41608;45.384;20.394;2022-08-21T05:02:04;40.20;;;26.88;;
55706;SDS011;41608;45.384;20.394;2022-08-21T05:04:31;44.83;;;26.67;;
55706;SDS011;41608;45.384;20.394;2022-08-21T05:07:01;36.38;;;26.98;;
55706;SDS011;41608;45.384;20.394;2022-08-21T05:09:28;40.10;;;25.75;;
55706;SDS011;41608;45.384;20.394;2022-08-21T05:11:55;37.60;;;26.88;;
55706;SDS011;41608;45.384;20.394;2022-08-21T05:14:23;37.83;;;25.65;;
55706;SDS011;41608;45.384;20.394;2022-08-21T05:16:51;27.48;;;23.98;;
55706;SDS011;41608;45.384;20.394;2022-08-21T05:19:17;40.70;;;25.27;;
55706;SDS011;41608;45.384;20.394;2022-08-21T05:21:43;40.10;;;24.65;;
55706;SDS011;41608;45.384;20.394;2022-08-21T05:24:13;35.72;;;23.17;;
55706;SDS011;41608;45.384;20.394;2022-08-21T05:26:39;37.45;;;25.90;;
55706;SDS011;41608;45.384;20.394;2022-08-21T05:29:06;35.58;;;25.13;;
55706;SDS011;41608;45.384;20.394;2022-08-21T05:31:32;31.23;;;23.52;;
55706;SDS011;41608;45.384;20.394;2022-08-21T05:33:58;35.70;;;23.38;;
55706;SDS011;41608;45.384;20.394;2022-08-21T05:36:24;35.88;;;24.25;;
55706;SDS011;41608;45.384;20.394;2022-08-21T05:38:50;30.77;;;22.40;;
55706;SDS011;41608;45.384;20.394;2022-08-21T05:41:17;30.90;;;21.35;;
55706;SDS011;41608;45.384;20.394;2022-08-21T05:43:43;27.52;;;19.33;;
55706;SDS011;41608;45.384;20.394;2022-08-21T05:46:09;23.25;;;17.15;;
55706;SDS011;41608;45.384;20.394;2022-08-21T05:48:35;25.65;;;17.90;;
55706;SDS011;41608;45.384;20.394;2022-08-21T05:51:05;26.25;;;12.15;;
55706;SDS011;41608;45.384;20.394;2022-08-21T05:53:32;18.05;;;12.23;;
55706;SDS011;41608;45.384;20.394;2022-08-21T05:55:58;15.25;;;9.77;;
55706;SDS011;41608;45.384;20.394;2022-08-21T05:58:24;15.88;;;9.85;;
55706;SDS011;41608;45.384;20.394;2022-08-21T06:00:53;14.77;;;8.85;;
55706;SDS011;41608;45.384;20.394;2022-08-21T06:03:23;19.33;;;11.02;;
55706;SDS011;41608;45.384;20.394;2022-08-21T06:05:49;17.67;;;10.45;;
55706;SDS011;41608;45.384;20.394;2022-08-21T06:08:16;23.40;;;11.32;;
55706;SDS011;41608;45.384;20.394;2022-08-21T06:10:43;23.27;;;10.15;;
55706;SDS011;41608;45.384;20.394;2022-08-21T06:13:09;9.48;;;6.38;;
55706;SDS011;41608;45.384;20.394;2022-08-21T06:15:35;16.17;;;8.55;;
55706;SDS011;41608;45.384;20.394;2022-08-21T06:18:01;20.90;;;9.32;;
55706;SDS011;41608;45.384;20.394;2022-08-21T06:20:28;17.60;;;8.80;;
55706;SDS011;41608;45.384;20.394;2022-08-21T06:22:54;15.68;;;8.02;;
55706;SDS011;41608;45.384;20.394;2022-08-21T06:25:20;20.38;;;10.75;;
55706;SDS011;41608;45.384;20.394;2022-08-21T06:27:46;21.90;;;9.90;;
55706;SDS011;41608;45.384;20.394;2022-08-21T06:30:12;20.33;;;10.57;;
55706;SDS011;41608;45.384;20.394;2022-08-21T06:32:38;18.60;;;9.15;;
55706;SDS011;41608;45.384;20.394;2022-08-21T06:35:05;15.20;;;10.20;;
55706;SDS011;41608;45.384;20.394;2022-08-21T06:37:31;24.45;;;12.13;;
55706;SDS011;41608;45.384;20.394;2022-08-21T06:39:57;25.33;;;11.77;;
55706;SDS011;41608;45.384;20.394;2022-08-21T06:42:23;19.42;;;12.10;;
55706;SDS011;41608;45.384;20.394;2022-08-21T06:44:51;15.90;;;10.80;;
55706;SDS011;41608;45.384;20.394;2022-08-21T06:47:19;19.77;;;11.50;;
55706;SDS011;41608;45.384;20.394;2022-08-21T06:49:45;18.55;;;11.13;;
55706;SDS011;41608;45.384;20.394;2022-08-21T06:52:12;18.35;;;11.70;;
55706;SDS011;41608;45.384;20.394;2022-08-21T06:54:38;32.70;;;23.77;;
55706;SDS011;41608;45.384;20.394;2022-08-21T06:57:05;15.65;;;11.73;;
55706;SDS011;41608;45.384;20.394;2022-08-21T06:59:31;17.42;;;11.88;;
55706;SDS011;41608;45.384;20.394;2022-08-21T07:01:58;18.63;;;11.10;;
55706;SDS011;41608;45.384;20.394;2022-08-21T07:04:24;18.52;;;11.32;;
55706;SDS011;41608;45.384;20.394;2022-08-21T07:06:51;18.48;;;11.25;;
55706;SDS011;41608;45.384;20.394;2022-08-21T07:09:17;14.40;;;9.98;;
55706;SDS011;41608;45.384;20.394;2022-08-21T07:11:44;19.33;;;11.85;;
55706;SDS011;41608;45.384;20.394;2022-08-21T07:14:12;16.27;;;10.48;;
55706;SDS011;41608;45.384;20.394;2022-08-21T07:16:38;40.78;;;34.85;;
55706;SDS011;41608;45.384;20.394;2022-08-21T07:19:06;57.25;;;51.10;;
55706;SDS011;41608;45.384;20.394;2022-08-21T07:21:37;62.40;;;51.70;;
55706;SDS011;41608;45.384;20.394;2022-08-21T07:24:03;16.67;;;10.82;;
55706;SDS011;41608;45.384;20.394;2022-08-21T07:26:29;20.63;;;10.60;;
55706;SDS011;41608;45.384;20.394;2022-08-21T07:28:55;16.25;;;10.45;;
55706;SDS011;41608;45.384;20.394;2022-08-21T07:31:22;15.77;;;10.52;;
55706;SDS011;41608;45.384;20.394;2022-08-21T07:33:48;16.75;;;10.50;;
55706;SDS011;41608;45.384;20.394;2022-08-21T07:36:14;19.02;;;11.10;;
55706;SDS011;41608;45.384;20.394;2022-08-21T07:38:41;14.07;;;9.32;;
55706;SDS011;41608;45.384;20.394;2022-08-21T07:41:12;13.43;;;9.85;;
55706;SDS011;41608;45.384;20.394;2022-08-21T07:43:39;13.52;;;9.73;;
55706;SDS011;41608;45.384;20.394;2022-08-21T07:46:05;20.63;;;11.95;;
55706;SDS011;41608;45.384;20.394;2022-08-21T07:48:33;15.07;;;10.95;;
55706;SDS011;41608;45.384;20.394;2022-08-21T07:51:00;21.60;;;12.45;;
55706;SDS011;41608;45.384;20.394;2022-08-21T07:53:28;18.75;;;12.50;;
55706;SDS011;41608;45.384;20.394;2022-08-21T07:55:56;24.60;;;13.68;;
55706;SDS011;41608;45.384;20.394;2022-08-21T07:58:22;15.43;;;11.55;;
55706;SDS011;41608;45.384;20.394;2022-08-21T08:00:48;20.52;;;12.52;;
55706;SDS011;41608;45.384;20.394;2022-08-21T08:03:14;22.50;;;13.75;;
55706;SDS011;41608;45.384;20.394;2022-08-21T08:05:41;21.58;;;15.30;;
55706;SDS011;41608;45.384;20.394;2022-08-21T08:08:07;28.17;;;17.67;;
55706;SDS011;41608;45.384;20.394;2022-08-21T08:10:33;27.42;;;18.83;;
55706;SDS011;41608;45.384;20.394;2022-08-21T08:12:59;23.25;;;17.15;;
55706;SDS011;41608;45.384;20.394;2022-08-21T08:15:26;27.38;;;17.90;;
55706;SDS011;41608;45.384;20.394;2022-08-21T08:17:53;22.10;;;15.55;;
55706;SDS011;41608;45.384;20.394;2022-08-21T08:20:22;23.83;;;17.38;;
55706;SDS011;41608;45.384;20.394;2022-08-21T08:22:51;28.17;;;17.35;;
55706;SDS011;41608;45.384;20.394;2022-08-21T08:25:18;22.75;;;17.17;;
55706;SDS011;41608;45.384;20.394;2022-08-21T08:27:45;26.20;;;17.73;;
55706;SDS011;41608;45.384;20.394;2022-08-21T08:30:12;29.80;;;19.15;;
55706;SDS011;41608;45.384;20.394;2022-08-21T08:32:38;21.00;;;15.63;;
55706;SDS011;41608;45.384;20.394;2022-08-21T08:35:04;20.67;;;14.18;;
55706;SDS011;41608;45.384;20.394;2022-08-21T08:37:32;17.75;;;15.27;;
55706;SDS011;41608;45.384;20.394;2022-08-21T08:39:58;20.02;;;14.07;;
55706;SDS011;41608;45.384;20.394;2022-08-21T08:42:25;18.73;;;14.88;;
55706;SDS011;41608;45.384;20.394;2022-08-21T08:45:04;20.25;;;14.80;;
55706;SDS011;41608;45.384;20.394;2022-08-21T08:47:32;22.38;;;15.27;;
55706;SDS011;41608;45.384;20.394;2022-08-21T08:50:12;23.63;;;15.05;;
55706;SDS011;41608;45.384;20.394;2022-08-21T08:52:43;21.23;;;13.27;;
55706;SDS011;41608;45.384;20.394;2022-08-21T08:57:42;16.60;;;12.45;;
55706;SDS011;41608;45.384;20.394;2022-08-21T09:00:11;16.20;;;10.18;;
55706;SDS011;41608;45.384;20.394;2022-08-21T09:02:39;17.67;;;11.27;;
55706;SDS011;41608;45.384;20.394;2022-08-21T09:05:09;20.15;;;12.45;;
55706;SDS011;41608;45.384;20.394;2022-08-21T09:10:33;17.27;;;13.00;;
55706;SDS011;41608;45.384;20.394;2022-08-21T09:28:20;23.52;;;16.20;;
55706;SDS011;41608;45.384;20.394;2022-08-21T09:30:46;18.92;;;15.18;;
55706;SDS011;41608;45.384;20.394;2022-08-21T09:33:12;24.20;;;16.73;;
55706;SDS011;41608;45.384;20.394;2022-08-21T09:35:51;20.88;;;14.98;;
55706;SDS011;41608;45.384;20.394;2022-08-21T09:38:28;23.17;;;16.27;;
55706;SDS011;41608;45.384;20.394;2022-08-21T09:41:06;25.13;;;17.90;;
55706;SDS011;41608;45.384;20.394;2022-08-21T09:43:34;26.38;;;16.55;;
55706;SDS011;41608;45.384;20.394;2022-08-21T09:46:10;21.15;;;15.43;;
55706;SDS011;41608;45.384;20.394;2022-08-21T09:48:41;19.85;;;14.60;;
55706;SDS011;41608;45.384;20.394;2022-08-21T09:51:10;22.83;;;16.23;;
55706;SDS011;41608;45.384;20.394;2022-08-21T09:53:38;17.20;;;13.27;;
55706;SDS011;41608;45.384;20.394;2022-08-21T09:56:16;15.75;;;11.88;;
55706;SDS011;41608;45.384;20.394;2022-08-21T09:59:11;12.30;;;8.65;;
55706;SDS011;41608;45.384;20.394;2022-08-21T10:01:45;11.93;;;8.95;;
55706;SDS011;41608;45.384;20.394;2022-08-21T10:04:11;15.60;;;8.95;;
55706;SDS011;41608;45.384;20.394;2022-08-21T10:06:37;12.10;;;7.38;;
55706;SDS011;41608;45.384;20.394;2022-08-21T10:09:05;15.95;;;8.48;;
55706;SDS011;41608;45.384;20.394;2022-08-21T10:11:31;10.63;;;6.72;;
55706;SDS011;41608;45.384;20.394;2022-08-21T10:16:49;11.30;;;9.05;;
55706;SDS011;41608;45.384;20.394;2022-08-21T10:19:55;14.68;;;10.73;;
55706;SDS011;41608;45.384;20.394;2022-08-21T10:22:15;12.52;;;10.40;;
55706;SDS011;41608;45.384;20.394;2022-08-21T10:32:20;10.05;;;7.45;;
55706;SDS011;41608;45.384;20.394;2022-08-21T10:40:15;10.38;;;8.98;;
55706;SDS011;41608;45.384;20.394;2022-08-21T10:42:49;8.73;;;7.70;;
55706;SDS011;41608;45.384;20.394;2022-08-21T10:45:24;9.25;;;7.78;;
55706;SDS011;41608;45.384;20.394;2022-08-21T10:47:57;12.65;;;7.35;;
55706;SDS011;41608;45.384;20.394;2022-08-21T10:57:50;8.30;;;6.80;;
55706;SDS011;41608;45.384;20.394;2022-08-21T11:00:21;7.75;;;6.40;;
55706;SDS011;41608;45.384;20.394;2022-08-21T11:10:42;10.63;;;8.93;;
55706;SDS011;41608;45.384;20.394;2022-08-21T11:23:23;13.18;;;11.45;;
55706;SDS011;41608;45.384;20.394;2022-08-21T11:26:11;13.80;;;10.60;;
55706;SDS011;41608;45.384;20.394;2022-08-21T11:29:01;13.25;;;11.70;;
55706;SDS011;41608;45.384;20.394;2022-08-21T11:34:04;15.38;;;13.68;;
55706;SDS011;41608;45.384;20.394;2022-08-21T11:36:54;17.38;;;13.90;;
55706;SDS011;41608;45.384;20.394;2022-08-21T11:42:06;16.50;;;13.88;;
55706;SDS011;41608;45.384;20.394;2022-08-21T11:47:06;18.10;;;13.82;;
55706;SDS011;41608;45.384;20.394;2022-08-21T11:54:51;16.63;;;12.50;;
55706;SDS011;41608;45.384;20.394;2022-08-21T12:00:11;16.70;;;13.07;;
55706;SDS011;41608;45.384;20.394;2022-08-21T12:02:35;19.00;;;12.57;;
55706;SDS011;41608;45.384;20.394;2022-08-21T12:05:06;16.60;;;11.55;;
55706;SDS011;41608;45.384;20.394;2022-08-21T12:07:40;20.80;;;12.68;;
55706;SDS011;41608;45.384;20.394;2022-08-21T12:10:14;13.93;;;11.50;;
55706;SDS011;41608;45.384;20.394;2022-08-21T12:12:42;16.63;;;10.40;;
55706;SDS011;41608;45.384;20.394;2022-08-21T12:17:50;17.33;;;13.35;;
55706;SDS011;41608;45.384;20.394;2022-08-21T12:22:47;16.88;;;13.38;;
55706;SDS011;41608;45.384;20.394;2022-08-21T12:25:17;15.65;;;11.35;;
55706;SDS011;41608;45.384;20.394;2022-08-21T12:27:47;17.95;;;12.73;;
55706;SDS011;41608;45.384;20.394;2022-08-21T12:30:19;10.90;;;7.72;;
55706;SDS011;41608;45.384;20.394;2022-08-21T12:32:46;17.70;;;10.15;;
55706;SDS011;41608;45.384;20.394;2022-08-21T12:35:41;18.75;;;12.50;;
55706;SDS011;41608;45.384;20.394;2022-08-21T12:46:05;20.08;;;14.70;;
55706;SDS011;41608;45.384;20.394;2022-08-21T12:48:33;21.30;;;14.30;;
55706;SDS011;41608;45.384;20.394;2022-08-21T12:53:47;20.85;;;14.60;;
55706;SDS011;41608;45.384;20.394;2022-08-21T12:56:15;23.80;;;15.02;;
55706;SDS011;41608;45.384;20.394;2022-08-21T12:58:50;20.33;;;14.85;;
55706;SDS011;41608;45.384;20.394;2022-08-21T13:01:23;21.42;;;14.63;;
55706;SDS011;41608;45.384;20.394;2022-08-21T13:03:50;22.25;;;16.67;;
55706;SDS011;41608;45.384;20.394;2022-08-21T13:06:21;23.60;;;15.82;;
55706;SDS011;41608;45.384;20.394;2022-08-21T13:08:49;32.67;;;20.58;;
55706;SDS011;41608;45.384;20.394;2022-08-21T13:11:18;26.98;;;21.45;;
55706;SDS011;41608;45.384;20.394;2022-08-21T13:13:48;26.63;;;18.77;;
55706;SDS011;41608;45.384;20.394;2022-08-21T13:16:26;31.25;;;21.70;;
55706;SDS011;41608;45.384;20.394;2022-08-21T13:18:55;23.50;;;18.05;;
55706;SDS011;41608;45.384;20.394;2022-08-21T13:21:21;26.38;;;18.92;;
55706;SDS011;41608;45.384;20.394;2022-08-21T13:23:47;22.25;;;17.00;;
55706;SDS011;41608;45.384;20.394;2022-08-21T13:26:14;24.45;;;17.60;;
55706;SDS011;41608;45.384;20.394;2022-08-21T13:28:41;33.03;;;20.83;;
55706;SDS011;41608;45.384;20.394;2022-08-21T13:31:09;19.27;;;13.32;;
55706;SDS011;41608;45.384;20.394;2022-08-21T13:33:35;27.20;;;17.92;;
55706;SDS011;41608;45.384;20.394;2022-08-21T13:38:33;32.03;;;21.55;;
55706;SDS011;41608;45.384;20.394;2022-08-21T13:41:06;40.35;;;24.67;;
55706;SDS011;41608;45.384;20.394;2022-08-21T13:43:35;42.60;;;28.20;;
55706;SDS011;41608;45.384;20.394;2022-08-21T13:46:02;44.35;;;26.50;;
55706;SDS011;41608;45.384;20.394;2022-08-21T13:48:33;43.83;;;23.48;;
55706;SDS011;41608;45.384;20.394;2022-08-21T13:51:00;45.10;;;26.77;;
55706;SDS011;41608;45.384;20.394;2022-08-21T13:56:00;33.40;;;22.15;;
55706;SDS011;41608;45.384;20.394;2022-08-21T13:58:28;30.58;;;20.70;;
55706;SDS011;41608;45.384;20.394;2022-08-21T14:00:57;33.55;;;24.50;;
55706;SDS011;41608;45.384;20.394;2022-08-21T14:03:35;32.05;;;22.33;;
55706;SDS011;41608;45.384;20.394;2022-08-21T14:06:10;29.25;;;18.65;;
55706;SDS011;41608;45.384;20.394;2022-08-21T14:08:37;25.83;;;20.05;;
55706;SDS011;41608;45.384;20.394;2022-08-21T14:11:09;31.30;;;18.92;;
55706;SDS011;41608;45.384;20.394;2022-08-21T14:13:46;25.65;;;18.27;;
55706;SDS011;41608;45.384;20.394;2022-08-21T14:16:19;22.50;;;14.75;;
55706;SDS011;41608;45.384;20.394;2022-08-21T14:21:36;27.90;;;16.98;;
55706;SDS011;41608;45.384;20.394;2022-08-21T14:24:26;27.70;;;17.45;;
55706;SDS011;41608;45.384;20.394;2022-08-21T14:26:50;29.48;;;15.07;;
55706;SDS011;41608;45.384;20.394;2022-08-21T14:29:18;33.55;;;16.27;;
55706;SDS011;41608;45.384;20.394;2022-08-21T14:31:49;22.95;;;13.68;;
55706;SDS011;41608;45.384;20.394;2022-08-21T14:34:15;23.38;;;16.02;;
55706;SDS011;41608;45.384;20.394;2022-08-21T14:36:42;20.75;;;14.95;;
55706;SDS011;41608;45.384;20.394;2022-08-21T14:39:08;20.80;;;13.57;;
55706;SDS011;41608;45.384;20.394;2022-08-21T14:41:35;17.75;;;11.70;;
55706;SDS011;41608;45.384;20.394;2022-08-21T14:44:02;23.20;;;12.25;;
55706;SDS011;41608;45.384;20.394;2022-08-21T14:46:29;16.92;;;10.77;;
55706;SDS011;41608;45.384;20.394;2022-08-21T14:48:57;15.30;;;10.13;;
55706;SDS011;41608;45.384;20.394;2022-08-21T14:51:23;18.63;;;9.93;;
55706;SDS011;41608;45.384;20.394;2022-08-21T14:53:49;12.77;;;8.00;;
55706;SDS011;41608;45.384;20.394;2022-08-21T14:56:15;13.50;;;10.60;;
55706;SDS011;41608;45.384;20.394;2022-08-21T14:58:44;13.35;;;10.30;;
55706;SDS011;41608;45.384;20.394;2022-08-21T15:01:11;12.88;;;9.68;;
55706;SDS011;41608;45.384;20.394;2022-08-21T15:03:38;19.98;;;11.90;;
55706;SDS011;41608;45.384;20.394;2022-08-21T15:06:07;30.25;;;22.63;;
55706;SDS011;41608;45.384;20.394;2022-08-21T15:08:35;58.85;;;38.78;;
55706;SDS011;41608;45.384;20.394;2022-08-21T15:11:02;51.30;;;34.97;;
55706;SDS011;41608;45.384;20.394;2022-08-21T15:13:29;50.60;;;35.40;;
55706;SDS011;41608;45.384;20.394;2022-08-21T15:15:56;33.05;;;22.20;;
55706;SDS011;41608;45.384;20.394;2022-08-21T15:18:23;27.23;;;18.25;;
55706;SDS011;41608;45.384;20.394;2022-08-21T15:20:50;17.95;;;13.32;;
55706;SDS011;41608;45.384;20.394;2022-08-21T15:23:16;20.38;;;13.50;;
55706;SDS011;41608;45.384;20.394;2022-08-21T15:25:47;17.65;;;12.55;;
55706;SDS011;41608;45.384;20.394;2022-08-21T15:28:14;14.73;;;11.23;;
55706;SDS011;41608;45.384;20.394;2022-08-21T15:30:41;16.38;;;11.43;;
55706;SDS011;41608;45.384;20.394;2022-08-21T15:33:12;16.10;;;12.43;;
55706;SDS011;41608;45.384;20.394;2022-08-21T15:35:39;17.48;;;11.65;;
55706;SDS011;41608;45.384;20.394;2022-08-21T15:38:05;16.33;;;11.90;;
55706;SDS011;41608;45.384;20.394;2022-08-21T15:40:32;13.35;;;10.75;;
55706;SDS011;41608;45.384;20.394;2022-08-21T15:43:00;18.55;;;13.50;;
55706;SDS011;41608;45.384;20.394;2022-08-21T15:45:27;18.95;;;13.60;;
55706;SDS011;41608;45.384;20.394;2022-08-21T15:47:53;21.30;;;13.57;;
55706;SDS011;41608;45.384;20.394;2022-08-21T15:50:19;17.77;;;14.07;;
55706;SDS011;41608;45.384;20.394;2022-08-21T15:52:46;20.35;;;13.95;;
55706;SDS011;41608;45.384;20.394;2022-08-21T15:55:12;20.20;;;15.18;;
55706;SDS011;41608;45.384;20.394;2022-08-21T15:57:42;23.45;;;14.15;;
55706;SDS011;41608;45.384;20.394;2022-08-21T16:00:13;19.23;;;13.88;;